sensor_id;sensor_type;location;lat;lon;timestamp;temperature;humidity
4520;DHT22;2272;49.226;8.108;2023-08-08T03:20:48;11.10;99.90
4520;DHT22;2272;49.226;8.108;2023-08-08T03:23:15;11.20;99.90
4520;DHT22;2272;49.226;8.108;2023-08-08T03:25:42;11.20;99.90
4520;DHT22;2272;49.226;8.108;2023-08-08T03:28:08;11.20;99.90
4520;DHT22;2272;49.226;8.108;2023-08-08T03:30:37;11.30;99.90
4520;DHT22;2272;49.226;8.108;2023-08-08T03:33:04;11.40;99.90
4520;DHT22;2272;49.226;8.108;2023-08-08T03:35:31;11.50;99.90
4520;DHT22;2272;49.226;8.108;2023-08-08T03:37:58;11.60;99.90
4520;DHT22;2272;49.226;8.108;2023-08-08T03:40:25;11.70;99.90
4520;DHT22;2272;49.226;8.108;2023-08-08T03:42:52;11.60;99.90
4520;DHT22;2272;49.226;8.108;2023-08-08T03:45:19;11.70;99.90
4520;DHT22;2272;49.226;8.108;2023-08-08T03:47:47;11.70;99.90
4520;DHT22;2272;49.226;8.108;2023-08-08T03:50:14;11.80;99.90
4520;DHT22;2272;49.226;8.108;2023-08-08T03:52:40;11.70;99.90
4520;DHT22;2272;49.226;8.108;2023-08-08T03:55:08;11.70;99.90
4520;DHT22;2272;49.226;8.108;2023-08-08T03:57:34;11.70;99.90
4520;DHT22;2272;49.226;8.108;2023-08-08T04:00:01;11.70;99.90
4520;DHT22;2272;49.226;8.108;2023-08-08T04:02:29;11.80;99.90
4520;DHT22;2272;49.226;8.108;2023-08-08T04:04:57;11.80;99.90
4520;DHT22;2272;49.226;8.108;2023-08-08T04:07:24;11.90;99.90
4520;DHT22;2272;49.226;8.108;2023-08-08T04:09:51;11.90;99.90
4520;DHT22;2272;49.226;8.108;2023-08-08T04:12:18;11.80;99.90
4520;DHT22;2272;49.226;8.108;2023-08-08T04:14:44;11.80;99.90
4520;DHT22;2272;49.226;8.108;2023-08-08T04:17:11;11.90;99.90
4520;DHT22;2272;49.226;8.108;2023-08-08T04:19:38;11.90;99.90
4520;DHT22;2272;49.226;8.108;2023-08-08T04:22:06;11.90;99.90
4520;DHT22;2272;49.226;8.108;2023-08-08T04:24:33;11.90;99.90
4520;DHT22;2272;49.226;8.108;2023-08-08T04:27:00;11.90;99.90
4520;DHT22;2272;49.226;8.108;2023-08-08T04:29:27;12.00;99.90
4520;DHT22;2272;49.226;8.108;2023-08-08T04:31:54;12.00;99.90
4520;DHT22;2272;49.226;8.108;2023-08-08T04:34:21;12.10;99.90
4520;DHT22;2272;49.226;8.108;2023-08-08T04:36:47;12.20;99.90
4520;DHT22;2272;49.226;8.108;2023-08-08T04:39:16;12.20;99.90
4520;DHT22;2272;49.226;8.108;2023-08-08T04:41:43;12.20;99.90
4520;DHT22;2272;49.226;8.108;2023-08-08T04:44:09;12.20;99.90
4520;DHT22;2272;49.226;8.108;2023-08-08T04:46:36;12.20;99.90
4520;DHT22;2272;49.226;8.108;2023-08-08T04:49:03;12.20;99.90
4520;DHT22;2272;49.226;8.108;2023-08-08T04:51:30;12.20;99.90
4520;DHT22;2272;49.226;8.108;2023-08-08T04:53:57;12.20;99.90
4520;DHT22;2272;49.226;8.108;2023-08-08T04:56:25;12.20;99.90
4520;DHT22;2272;49.226;8.108;2023-08-08T04:58:53;12.30;99.90
4520;DHT22;2272;49.226;8.108;2023-08-08T05:01:20;12.30;99.90
4520;DHT22;2272;49.226;8.108;2023-08-08T05:03:47;12.50;99.90
4520;DHT22;2272;49.226;8.108;2023-08-08T05:06:15;12.60;99.90
4520;DHT22;2272;49.226;8.108;2023-08-08T05:08:42;12.60;99.90
4520;DHT22;2272;49.226;8.108;2023-08-08T05:11:08;12.70;99.90
4520;DHT22;2272;49.226;8.108;2023-08-08T05:13:37;12.80;99.90
4520;DHT22;2272;49.226;8.108;2023-08-08T05:16:04;12.90;99.90
4520;DHT22;2272;49.226;8.108;2023-08-08T05:18:31;13.00;99.90
4520;DHT22;2272;49.226;8.108;2023-08-08T05:20:58;13.10;99.90
4520;DHT22;2272;49.226;8.108;2023-08-08T05:23:25;13.30;99.90
4520;DHT22;2272;49.226;8.108;2023-08-08T05:25:53;13.40;99.90
4520;DHT22;2272;49.226;8.108;2023-08-08T05:28:19;13.50;99.90
4520;DHT22;2272;49.226;8.108;2023-08-08T05:30:49;13.50;99.90
4520;DHT22;2272;49.226;8.108;2023-08-08T05:33:15;13.60;99.90
4520;DHT22;2272;49.226;8.108;2023-08-08T05:35:42;13.70;99.90
4520;DHT22;2272;49.226;8.108;2023-08-08T05:38:09;13.80;99.90
4520;DHT22;2272;49.226;8.108;2023-08-08T05:40:36;13.90;99.90
4520;DHT22;2272;49.226;8.108;2023-08-08T05:43:03;13.90;99.90
4520;DHT22;2272;49.226;8.108;2023-08-08T05:45:30;14.00;99.90
4520;DHT22;2272;49.226;8.108;2023-08-08T05:47:59;14.00;99.90
4520;DHT22;2272;49.226;8.108;2023-08-08T05:50:26;14.10;99.90
4520;DHT22;2272;49.226;8.108;2023-08-08T05:52:57;14.00;99.90
4520;DHT22;2272;49.226;8.108;2023-08-08T05:55:24;14.10;99.90
4520;DHT22;2272;49.226;8.108;2023-08-08T05:57:51;14.10;99.90
4520;DHT22;2272;49.226;8.108;2023-08-08T06:00:18;14.10;99.90
4520;DHT22;2272;49.226;8.108;2023-08-08T06:02:45;14.10;99.90
4520;DHT22;2272;49.226;8.108;2023-08-08T06:05:16;14.20;99.90
4520;DHT22;2272;49.226;8.108;2023-08-08T06:07:43;14.40;99.90
4520;DHT22;2272;49.226;8.108;2023-08-08T06:10:10;14.60;99.90
4520;DHT22;2272;49.226;8.108;2023-08-08T06:12:37;14.80;99.90
4520;DHT22;2272;49.226;8.108;2023-08-08T06:15:06;15.00;99.90
4520;DHT22;2272;49.226;8.108;2023-08-08T06:17:34;15.10;99.90
4520;DHT22;2272;49.226;8.108;2023-08-08T06:20:01;15.20;99.90
4520;DHT22;2272;49.226;8.108;2023-08-08T06:22:40;15.20;99.90
4520;DHT22;2272;49.226;8.108;2023-08-08T06:25:08;15.00;99.90
4520;DHT22;2272;49.226;8.108;2023-08-08T06:27:36;15.00;99.90
4520;DHT22;2272;49.226;8.108;2023-08-08T06:30:04;14.90;99.90
4520;DHT22;2272;49.226;8.108;2023-08-08T06:32:33;14.80;99.90
4520;DHT22;2272;49.226;8.108;2023-08-08T06:35:00;14.80;99.90
4520;DHT22;2272;49.226;8.108;2023-08-08T06:37:27;14.80;99.90
4520;DHT22;2272;49.226;8.108;2023-08-08T06:39:58;14.80;99.90
4520;DHT22;2272;49.226;8.108;2023-08-08T06:42:27;14.80;99.90
4520;DHT22;2272;49.226;8.108;2023-08-08T06:44:53;14.80;99.90
4520;DHT22;2272;49.226;8.108;2023-08-08T06:47:21;14.90;99.90
4520;DHT22;2272;49.226;8.108;2023-08-08T06:49:48;14.90;99.90
4520;DHT22;2272;49.226;8.108;2023-08-08T06:52:15;14.90;99.90
4520;DHT22;2272;49.226;8.108;2023-08-08T06:54:47;15.00;99.90
4520;DHT22;2272;49.226;8.108;2023-08-08T06:57:15;15.10;99.90
4520;DHT22;2272;49.226;8.108;2023-08-08T06:59:42;15.20;99.90
4520;DHT22;2272;49.226;8.108;2023-08-08T07:02:09;15.20;99.90
4520;DHT22;2272;49.226;8.108;2023-08-08T07:04:37;15.30;99.90
4520;DHT22;2272;49.226;8.108;2023-08-08T07:07:03;15.30;99.90
4520;DHT22;2272;49.226;8.108;2023-08-08T07:09:30;15.40;99.90
4520;DHT22;2272;49.226;8.108;2023-08-08T07:11:58;15.60;99.90
4520;DHT22;2272;49.226;8.108;2023-08-08T07:14:26;15.70;99.90
4520;DHT22;2272;49.226;8.108;2023-08-08T07:16:53;15.80;99.90
4520;DHT22;2272;49.226;8.108;2023-08-08T07:19:20;16.00;99.90
4520;DHT22;2272;49.226;8.108;2023-08-08T07:21:46;16.00;99.90
4520;DHT22;2272;49.226;8.108;2023-08-08T07:24:13;16.20;99.90
4520;DHT22;2272;49.226;8.108;2023-08-08T07:26:40;16.10;99.90
4520;DHT22;2272;49.226;8.108;2023-08-08T07:29:07;16.20;99.90
4520;DHT22;2272;49.226;8.108;2023-08-08T07:31:35;16.40;99.90
4520;DHT22;2272;49.226;8.108;2023-08-08T07:34:01;16.50;99.90
4520;DHT22;2272;49.226;8.108;2023-08-08T07:36:28;16.80;99.90
4520;DHT22;2272;49.226;8.108;2023-08-08T07:38:55;17.10;99.90
4520;DHT22;2272;49.226;8.108;2023-08-08T07:41:25;17.40;99.90
4520;DHT22;2272;49.226;8.108;2023-08-08T07:43:52;17.70;99.90
4520;DHT22;2272;49.226;8.108;2023-08-08T07:46:18;18.00;99.90
4520;DHT22;2272;49.226;8.108;2023-08-08T07:48:47;18.10;99.90
4520;DHT22;2272;49.226;8.108;2023-08-08T07:51:13;18.20;99.90
4520;DHT22;2272;49.226;8.108;2023-08-08T07:53:40;18.30;99.90
4520;DHT22;2272;49.226;8.108;2023-08-08T07:56:07;18.40;99.90
4520;DHT22;2272;49.226;8.108;2023-08-08T07:58:34;18.50;99.90
4520;DHT22;2272;49.226;8.108;2023-08-08T08:01:00;18.60;99.90
4520;DHT22;2272;49.226;8.108;2023-08-08T08:03:27;18.80;99.90
4520;DHT22;2272;49.226;8.108;2023-08-08T08:05:55;19.00;99.90
4520;DHT22;2272;49.226;8.108;2023-08-08T08:08:22;19.10;99.90
4520;DHT22;2272;49.226;8.108;2023-08-08T08:10:50;19.20;99.90
4520;DHT22;2272;49.226;8.108;2023-08-08T08:13:17;19.10;99.90
4520;DHT22;2272;49.226;8.108;2023-08-08T08:15:44;19.10;99.90
4520;DHT22;2272;49.226;8.108;2023-08-08T08:18:11;19.10;99.90
4520;DHT22;2272;49.226;8.108;2023-08-08T08:20:38;19.10;99.90
4520;DHT22;2272;49.226;8.108;2023-08-08T08:23:06;19.20;99.90
4520;DHT22;2272;49.226;8.108;2023-08-08T08:25:32;19.40;99.90
4520;DHT22;2272;49.226;8.108;2023-08-08T08:27:59;19.50;99.90
4520;DHT22;2272;49.226;8.108;2023-08-08T08:30:26;19.60;99.90
4520;DHT22;2272;49.226;8.108;2023-08-08T08:32:53;19.70;99.90
4520;DHT22;2272;49.226;8.108;2023-08-08T08:35:20;19.90;99.90
4520;DHT22;2272;49.226;8.108;2023-08-08T08:37:47;19.80;99.90
4520;DHT22;2272;49.226;8.108;2023-08-08T08:40:15;19.80;99.90
4520;DHT22;2272;49.226;8.108;2023-08-08T08:42:42;20.10;99.90
4520;DHT22;2272;49.226;8.108;2023-08-08T08:45:11;19.90;99.90
4520;DHT22;2272;49.226;8.108;2023-08-08T08:47:41;19.80;99.90
4520;DHT22;2272;49.226;8.108;2023-08-08T08:50:11;19.70;99.90
4520;DHT22;2272;49.226;8.108;2023-08-08T08:52:37;19.70;99.90
4520;DHT22;2272;49.226;8.108;2023-08-08T08:55:08;19.80;99.90
4520;DHT22;2272;49.226;8.108;2023-08-08T08:57:36;19.90;99.90
4520;DHT22;2272;49.226;8.108;2023-08-08T09:00:05;19.90;99.90
4520;DHT22;2272;49.226;8.108;2023-08-08T09:02:32;19.60;99.90
4520;DHT22;2272;49.226;8.108;2023-08-08T09:05:00;19.90;99.90
4520;DHT22;2272;49.226;8.108;2023-08-08T09:07:29;20.10;99.90
4520;DHT22;2272;49.226;8.108;2023-08-08T09:09:59;20.30;99.90
4520;DHT22;2272;49.226;8.108;2023-08-08T09:12:27;20.50;99.90
4520;DHT22;2272;49.226;8.108;2023-08-08T09:14:56;20.40;99.90
4520;DHT22;2272;49.226;8.108;2023-08-08T09:17:25;20.30;99.90
4520;DHT22;2272;49.226;8.108;2023-08-08T09:19:53;20.30;99.90
4520;DHT22;2272;49.226;8.108;2023-08-08T09:22:20;20.40;99.90
4520;DHT22;2272;49.226;8.108;2023-08-08T09:24:47;20.40;99.90
4520;DHT22;2272;49.226;8.108;2023-08-08T09:27:14;20.20;99.90
4520;DHT22;2272;49.226;8.108;2023-08-08T09:29:41;20.30;99.90
4520;DHT22;2272;49.226;8.108;2023-08-08T09:32:10;20.30;99.90
4520;DHT22;2272;49.226;8.108;2023-08-08T09:34:40;20.60;99.90
4520;DHT22;2272;49.226;8.108;2023-08-08T09:37:07;20.60;99.90
4520;DHT22;2272;49.226;8.108;2023-08-08T09:39:36;20.70;99.90
4520;DHT22;2272;49.226;8.108;2023-08-08T09:42:03;20.80;99.90
4520;DHT22;2272;49.226;8.108;2023-08-08T09:44:30;20.90;99.90
4520;DHT22;2272;49.226;8.108;2023-08-08T09:46:57;21.10;99.90
4520;DHT22;2272;49.226;8.108;2023-08-08T09:51:54;20.50;99.90
4520;DHT22;2272;49.226;8.108;2023-08-08T09:54:21;20.90;99.90
4520;DHT22;2272;49.226;8.108;2023-08-08T09:56:49;21.20;99.90
4520;DHT22;2272;49.226;8.108;2023-08-08T10:01:46;21.30;99.90
4520;DHT22;2272;49.226;8.108;2023-08-08T10:04:14;21.30;99.90
4520;DHT22;2272;49.226;8.108;2023-08-08T10:06:43;21.40;99.90
4520;DHT22;2272;49.226;8.108;2023-08-08T10:09:10;21.60;99.90
4520;DHT22;2272;49.226;8.108;2023-08-08T10:11:37;21.30;99.90
4520;DHT22;2272;49.226;8.108;2023-08-08T10:14:04;21.30;99.90
4520;DHT22;2272;49.226;8.108;2023-08-08T10:16:32;21.30;99.90
4520;DHT22;2272;49.226;8.108;2023-08-08T10:19:01;21.50;99.90
4520;DHT22;2272;49.226;8.108;2023-08-08T10:21:33;21.30;99.90
4520;DHT22;2272;49.226;8.108;2023-08-08T10:24:06;21.20;99.90
4520;DHT22;2272;49.226;8.108;2023-08-08T10:26:34;21.00;99.90
4520;DHT22;2272;49.226;8.108;2023-08-08T10:29:01;20.90;99.90
4520;DHT22;2272;49.226;8.108;2023-08-08T10:31:33;20.90;99.90
4520;DHT22;2272;49.226;8.108;2023-08-08T10:34:04;20.90;99.90
4520;DHT22;2272;49.226;8.108;2023-08-08T10:36:48;20.90;99.90
4520;DHT22;2272;49.226;8.108;2023-08-08T10:39:17;21.40;99.90
4520;DHT22;2272;49.226;8.108;2023-08-08T10:41:48;21.80;99.90
4520;DHT22;2272;49.226;8.108;2023-08-08T10:44:22;22.10;99.90
4520;DHT22;2272;49.226;8.108;2023-08-08T10:46:50;22.30;99.90
4520;DHT22;2272;49.226;8.108;2023-08-08T10:49:18;22.40;99.90
4520;DHT22;2272;49.226;8.108;2023-08-08T10:51:46;22.40;99.90
4520;DHT22;2272;49.226;8.108;2023-08-08T10:54:16;22.40;99.90
4520;DHT22;2272;49.226;8.108;2023-08-08T10:56:51;22.40;99.90
4520;DHT22;2272;49.226;8.108;2023-08-08T10:59:19;22.40;99.90
4520;DHT22;2272;49.226;8.108;2023-08-08T11:01:47;22.10;99.90
4520;DHT22;2272;49.226;8.108;2023-08-08T11:04:16;22.20;99.90
4520;DHT22;2272;49.226;8.108;2023-08-08T11:06:44;22.50;99.90
4520;DHT22;2272;49.226;8.108;2023-08-08T11:09:13;22.80;99.90
4520;DHT22;2272;49.226;8.108;2023-08-08T11:11:43;23.00;99.90
4520;DHT22;2272;49.226;8.108;2023-08-08T11:14:12;23.00;99.90
4520;DHT22;2272;49.226;8.108;2023-08-08T11:16:38;22.80;99.90
4520;DHT22;2272;49.226;8.108;2023-08-08T11:19:05;22.70;99.90
4520;DHT22;2272;49.226;8.108;2023-08-08T11:21:36;22.90;99.90
4520;DHT22;2272;49.226;8.108;2023-08-08T11:24:05;23.00;99.90
4520;DHT22;2272;49.226;8.108;2023-08-08T11:26:32;23.10;99.90
4520;DHT22;2272;49.226;8.108;2023-08-08T11:29:00;23.10;99.90
4520;DHT22;2272;49.226;8.108;2023-08-08T11:31:29;23.40;99.90
4520;DHT22;2272;49.226;8.108;2023-08-08T11:33:59;23.60;99.90
4520;DHT22;2272;49.226;8.108;2023-08-08T11:36:29;23.90;99.90
4520;DHT22;2272;49.226;8.108;2023-08-08T11:38:57;23.90;99.90
4520;DHT22;2272;49.226;8.108;2023-08-08T11:41:24;23.80;99.90
4520;DHT22;2272;49.226;8.108;2023-08-08T11:43:52;23.60;99.90
4520;DHT22;2272;49.226;8.108;2023-08-08T11:46:24;23.60;99.90
4520;DHT22;2272;49.226;8.108;2023-08-08T11:48:51;23.50;99.90
4520;DHT22;2272;49.226;8.108;2023-08-08T11:51:18;23.40;99.90
4520;DHT22;2272;49.226;8.108;2023-08-08T11:53:48;23.40;99.90
4520;DHT22;2272;49.226;8.108;2023-08-08T11:56:16;23.60;99.90
4520;DHT22;2272;49.226;8.108;2023-08-08T11:58:43;23.90;99.90
4520;DHT22;2272;49.226;8.108;2023-08-08T12:01:10;24.10;99.90
4520;DHT22;2272;49.226;8.108;2023-08-08T12:03:41;24.20;99.90
4520;DHT22;2272;49.226;8.108;2023-08-08T12:06:14;24.20;99.90
4520;DHT22;2272;49.226;8.108;2023-08-08T12:08:42;24.00;99.90
4520;DHT22;2272;49.226;8.108;2023-08-08T12:13:38;24.00;99.90
4520;DHT22;2272;49.226;8.108;2023-08-08T12:16:06;24.20;99.90
4520;DHT22;2272;49.226;8.108;2023-08-08T12:26:02;24.40;99.90
4520;DHT22;2272;49.226;8.108;2023-08-08T12:28:30;24.40;99.90
4520;DHT22;2272;49.226;8.108;2023-08-08T12:33:24;24.10;99.90
4520;DHT22;2272;49.226;8.108;2023-08-08T12:35:51;23.90;99.90
4520;DHT22;2272;49.226;8.108;2023-08-08T12:53:10;25.10;99.90
4520;DHT22;2272;49.226;8.108;2023-08-08T12:55:40;25.10;99.90
4520;DHT22;2272;49.226;8.108;2023-08-08T12:58:07;25.30;99.90
4520;DHT22;2272;49.226;8.108;2023-08-08T13:00:34;25.50;99.90
4520;DHT22;2272;49.226;8.108;2023-08-08T13:03:01;25.70;99.90
4520;DHT22;2272;49.226;8.108;2023-08-08T13:10:23;25.50;99.90
4520;DHT22;2272;49.226;8.108;2023-08-08T13:12:51;25.50;99.90
4520;DHT22;2272;49.226;8.108;2023-08-08T13:20:15;25.20;99.90
4520;DHT22;2272;49.226;8.108;2023-08-08T13:22:42;25.30;99.90
4520;DHT22;2272;49.226;8.108;2023-08-08T13:25:09;25.10;99.90
4520;DHT22;2272;49.226;8.108;2023-08-08T13:27:35;25.00;99.90
4520;DHT22;2272;49.226;8.108;2023-08-08T13:37:28;25.60;99.90
4520;DHT22;2272;49.226;8.108;2023-08-08T13:49:49;25.70;99.90
4520;DHT22;2272;49.226;8.108;2023-08-08T13:52:15;25.70;99.90
4520;DHT22;2272;49.226;8.108;2023-08-08T13:54:42;25.60;99.90
4520;DHT22;2272;49.226;8.108;2023-08-08T13:57:09;25.60;99.90
4520;DHT22;2272;49.226;8.108;2023-08-08T13:59:36;25.60;99.90
4520;DHT22;2272;49.226;8.108;2023-08-08T14:02:03;25.40;99.90
4520;DHT22;2272;49.226;8.108;2023-08-08T14:04:31;25.10;99.90
4520;DHT22;2272;49.226;8.108;2023-08-08T14:21:54;24.70;99.90
4520;DHT22;2272;49.226;8.108;2023-08-08T14:34:19;24.40;99.90
4520;DHT22;2272;49.226;8.108;2023-08-08T14:36:45;24.20;99.90
4520;DHT22;2272;49.226;8.108;2023-08-08T14:39:13;24.10;99.90
4520;DHT22;2272;49.226;8.108;2023-08-08T16:16:08;22.30;99.90
4520;DHT22;2272;49.226;8.108;2023-08-08T16:18:34;22.40;99.90
4520;DHT22;2272;49.226;8.108;2023-08-08T16:21:03;22.60;99.90
4520;DHT22;2272;49.226;8.108;2023-08-08T16:23:29;22.80;99.90
4520;DHT22;2272;49.226;8.108;2023-08-08T16:28:28;23.00;99.90
4520;DHT22;2272;49.226;8.108;2023-08-08T16:30:55;23.10;99.90
4520;DHT22;2272;49.226;8.108;2023-08-08T16:35:50;23.10;99.90
4520;DHT22;2272;49.226;8.108;2023-08-08T16:38:18;22.90;99.90
4520;DHT22;2272;49.226;8.108;2023-08-08T16:40:45;22.50;99.90
4520;DHT22;2272;49.226;8.108;2023-08-08T16:43:12;22.30;99.90
4520;DHT22;2272;49.226;8.108;2023-08-08T16:45:39;22.20;99.90
4520;DHT22;2272;49.226;8.108;2023-08-08T16:48:06;22.00;99.90
4520;DHT22;2272;49.226;8.108;2023-08-08T16:50:33;21.90;99.90
4520;DHT22;2272;49.226;8.108;2023-08-08T16:53:00;21.70;99.90
4520;DHT22;2272;49.226;8.108;2023-08-08T16:55:29;21.60;99.90
4520;DHT22;2272;49.226;8.108;2023-08-08T16:57:56;21.60;99.90
4520;DHT22;2272;49.226;8.108;2023-08-08T17:00:23;21.50;99.90
4520;DHT22;2272;49.226;8.108;2023-08-08T17:02:49;21.40;99.90
4520;DHT22;2272;49.226;8.108;2023-08-08T17:05:16;21.20;99.90
4520;DHT22;2272;49.226;8.108;2023-08-08T17:07:46;21.10;99.90
4520;DHT22;2272;49.226;8.108;2023-08-08T17:10:16;21.10;99.90
4520;DHT22;2272;49.226;8.108;2023-08-08T17:12:46;21.10;99.90
4520;DHT22;2272;49.226;8.108;2023-08-08T17:15:13;21.10;99.90
4520;DHT22;2272;49.226;8.108;2023-08-08T17:17:40;21.10;99.90
4520;DHT22;2272;49.226;8.108;2023-08-08T17:20:08;21.10;99.90
4520;DHT22;2272;49.226;8.108;2023-08-08T17:22:35;21.00;99.90
4520;DHT22;2272;49.226;8.108;2023-08-08T17:25:02;20.90;99.90
4520;DHT22;2272;49.226;8.108;2023-08-08T17:27:30;20.80;99.90
4520;DHT22;2272;49.226;8.108;2023-08-08T17:30:02;20.80;99.90
4520;DHT22;2272;49.226;8.108;2023-08-08T17:32:34;20.70;99.90
4520;DHT22;2272;49.226;8.108;2023-08-08T17:35:00;20.60;99.90
4520;DHT22;2272;49.226;8.108;2023-08-08T17:37:27;20.60;99.90
4520;DHT22;2272;49.226;8.108;2023-08-08T17:39:54;20.60;99.90
4520;DHT22;2272;49.226;8.108;2023-08-08T17:42:22;20.50;99.90
4520;DHT22;2272;49.226;8.108;2023-08-08T17:44:48;20.50;99.90
4520;DHT22;2272;49.226;8.108;2023-08-08T17:47:17;20.50;99.90
4520;DHT22;2272;49.226;8.108;2023-08-08T17:49:44;20.60;99.90
4520;DHT22;2272;49.226;8.108;2023-08-08T17:54:39;20.60;99.90
4520;DHT22;2272;49.226;8.108;2023-08-08T17:57:06;20.60;99.90
4520;DHT22;2272;49.226;8.108;2023-08-08T18:02:00;20.40;99.90
4520;DHT22;2272;49.226;8.108;2023-08-08T18:04:29;20.30;99.90
4520;DHT22;2272;49.226;8.108;2023-08-08T18:06:57;20.10;99.90
4520;DHT22;2272;49.226;8.108;2023-08-08T18:09:24;20.10;99.90
4520;DHT22;2272;49.226;8.108;2023-08-08T18:11:53;19.90;99.90
4520;DHT22;2272;49.226;8.108;2023-08-08T18:14:20;19.80;99.90
4520;DHT22;2272;49.226;8.108;2023-08-08T18:16:47;19.60;99.90
4520;DHT22;2272;49.226;8.108;2023-08-08T18:19:14;19.50;99.90
4520;DHT22;2272;49.226;8.108;2023-08-08T18:21:45;19.40;99.90
4520;DHT22;2272;49.226;8.108;2023-08-08T18:24:12;19.30;99.90
4520;DHT22;2272;49.226;8.108;2023-08-08T18:26:39;19.30;99.90
4520;DHT22;2272;49.226;8.108;2023-08-08T18:29:06;19.20;99.90
4520;DHT22;2272;49.226;8.108;2023-08-08T18:31:33;19.20;99.90
4520;DHT22;2272;49.226;8.108;2023-08-08T18:34:00;19.10;99.90
4520;DHT22;2272;49.226;8.108;2023-08-08T18:36:28;19.10;99.90
4520;DHT22;2272;49.226;8.108;2023-08-08T18:38:57;19.00;99.90
4520;DHT22;2272;49.226;8.108;2023-08-08T18:41:25;19.00;99.90
4520;DHT22;2272;49.226;8.108;2023-08-08T18:43:52;18.90;99.90
4520;DHT22;2272;49.226;8.108;2023-08-08T18:46:18;18.80;99.90
4520;DHT22;2272;49.226;8.108;2023-08-08T18:48:46;18.80;99.90
4520;DHT22;2272;49.226;8.108;2023-08-08T18:51:13;18.70;99.90
4520;DHT22;2272;49.226;8.108;2023-08-08T18:53:41;18.60;99.90
4520;DHT22;2272;49.226;8.108;2023-08-08T18:56:10;18.50;99.90
4520;DHT22;2272;49.226;8.108;2023-08-08T18:58:37;18.50;99.90
4520;DHT22;2272;49.226;8.108;2023-08-08T19:01:04;18.40;99.90
4520;DHT22;2272;49.226;8.108;2023-08-08T19:03:31;18.40;99.90
4520;DHT22;2272;49.226;8.108;2023-08-08T19:06:00;18.30;99.90
4520;DHT22;2272;49.226;8.108;2023-08-08T19:08:28;18.30;99.90
4520;DHT22;2272;49.226;8.108;2023-08-08T19:10:55;18.30;99.90
4520;DHT22;2272;49.226;8.108;2023-08-08T19:13:24;18.20;99.90
4520;DHT22;2272;49.226;8.108;2023-08-08T19:15:51;18.20;99.90
4520;DHT22;2272;49.226;8.108;2023-08-08T19:18:18;18.20;99.90
4520;DHT22;2272;49.226;8.108;2023-08-08T19:20:45;18.20;99.90
4520;DHT22;2272;49.226;8.108;2023-08-08T19:23:13;18.20;99.90
4520;DHT22;2272;49.226;8.108;2023-08-08T19:25:41;18.10;99.90
4520;DHT22;2272;49.226;8.108;2023-08-08T19:33:05;18.00;99.90
4520;DHT22;2272;49.226;8.108;2023-08-08T19:35:32;18.10;99.90
4520;DHT22;2272;49.226;8.108;2023-08-08T19:37:59;18.10;99.90
4520;DHT22;2272;49.226;8.108;2023-08-08T19:40:26;18.10;99.90
4520;DHT22;2272;49.226;8.108;2023-08-08T19:42:53;18.00;99.90
4520;DHT22;2272;49.226;8.108;2023-08-08T19:45:20;18.00;99.90
4520;DHT22;2272;49.226;8.108;2023-08-08T19:47:48;17.90;99.90
4520;DHT22;2272;49.226;8.108;2023-08-08T19:50:15;17.90;99.90
4520;DHT22;2272;49.226;8.108;2023-08-08T19:52:43;17.90;99.90
4520;DHT22;2272;49.226;8.108;2023-08-08T19:55:12;17.90;99.90
4520;DHT22;2272;49.226;8.108;2023-08-08T19:57:40;17.80;99.90
4520;DHT22;2272;49.226;8.108;2023-08-08T20:00:08;17.80;99.90
4520;DHT22;2272;49.226;8.108;2023-08-08T20:02:35;17.70;99.90
4520;DHT22;2272;49.226;8.108;2023-08-08T20:05:04;17.70;99.90
4520;DHT22;2272;49.226;8.108;2023-08-08T20:07:31;17.60;99.90
4520;DHT22;2272;49.226;8.108;2023-08-08T20:09:57;17.60;99.90
4520;DHT22;2272;49.226;8.108;2023-08-08T20:12:24;17.60;99.90
4520;DHT22;2272;49.226;8.108;2023-08-08T20:14:51;17.60;99.90
4520;DHT22;2272;49.226;8.108;2023-08-08T20:17:18;17.60;99.90
4520;DHT22;2272;49.226;8.108;2023-08-08T20:19:45;17.50;99.90
4520;DHT22;2272;49.226;8.108;2023-08-08T20:22:13;17.50;99.90
4520;DHT22;2272;49.226;8.108;2023-08-08T20:24:40;17.40;99.90
4520;DHT22;2272;49.226;8.108;2023-08-08T20:27:07;17.30;99.90
4520;DHT22;2272;49.226;8.108;2023-08-08T20:29:34;17.30;99.90
4520;DHT22;2272;49.226;8.108;2023-08-08T20:32:04;17.20;99.90
4520;DHT22;2272;49.226;8.108;2023-08-08T20:34:31;17.20;99.90
4520;DHT22;2272;49.226;8.108;2023-08-08T20:36:58;17.20;99.90
4520;DHT22;2272;49.226;8.108;2023-08-08T20:39:30;17.20;99.90
4520;DHT22;2272;49.226;8.108;2023-08-08T20:47:04;17.10;99.90
